Time;durP1;ratioP1;P1;durP2;ratioP2;P2;SDS_P1;SDS_P2;PMS_P1;PMS_P2;Temp;Humidity;BMP_temperature;BMP_pressure;BME280_temperature;BME280_humidity;BME280_pressure;Samples;Min_cycle;Max_cycle;Signal;HPM_P1;HPM_P2
2024/01/28 00:00:17;;;;;;;40.47;32.43;;;1.80;91.70;;;;;;5078100;28;20263;-89
2024/01/28 00:02:43;;;;;;;45.47;32.73;;;1.80;91.90;;;;;;5078068;28;20243;-89
2024/01/28 00:05:12;;;;;;;47.90;33.30;;;1.80;92.00;;;;;;5078420;28;20206;-90
2024/01/28 00:07:37;;;;;;;38.60;29.67;;;1.90;92.00;;;;;;5078630;28;20206;-90
2024/01/28 00:10:03;;;;;;;37.50;24.63;;;2.00;92.00;;;;;;5078232;28;20554;-90
2024/01/28 00:12:29;;;;;;;37.10;23.73;;;1.90;91.90;;;;;;5079119;28;20180;-91
2024/01/28 00:14:54;;;;;;;47.47;34.40;;;1.90;91.90;;;;;;5078092;28;20175;-91
2024/01/28 00:17:20;;;;;;;42.67;31.93;;;1.80;91.90;;;;;;5077919;28;20194;-91
2024/01/28 00:19:45;;;;;;;41.00;30.07;;;1.80;92.00;;;;;;5078255;28;20179;-90
2024/01/28 00:22:11;;;;;;;56.50;30.33;;;1.80;92.10;;;;;;5077958;28;20261;-90
2024/01/28 00:24:36;;;;;;;44.60;30.53;;;1.70;92.10;;;;;;5078064;28;20170;-90
2024/01/28 00:27:02;;;;;;;49.70;32.13;;;1.70;92.20;;;;;;5077643;28;20202;-89
2024/01/28 00:29:31;;;;;;;44.57;31.60;;;1.70;92.20;;;;;;5095841;28;20178;-88
2024/01/28 00:31:57;;;;;;;39.13;31.43;;;1.70;92.20;;;;;;5080670;28;20600;-88
2024/01/28 00:34:24;;;;;;;41.23;30.90;;;1.60;92.30;;;;;;5077786;28;20189;-88
2024/01/28 00:36:49;;;;;;;42.23;29.53;;;1.60;92.40;;;;;;5095381;28;20187;-88
2024/01/28 00:39:15;;;;;;;39.30;30.27;;;1.60;92.40;;;;;;5076385;28;20717;-89
2024/01/28 00:41:40;;;;;;;45.93;29.60;;;1.70;92.50;;;;;;5077177;28;20171;-89
2024/01/28 00:44:06;;;;;;;56.07;31.63;;;1.60;92.40;;;;;;5077284;28;20175;-89
2024/01/28 00:46:32;;;;;;;39.00;29.67;;;1.60;92.40;;;;;;5077138;28;20195;-89
2024/01/28 00:48:58;;;;;;;45.53;34.47;;;1.60;92.30;;;;;;5077296;28;20175;-89
2024/01/28 00:51:23;;;;;;;36.10;25.00;;;1.50;92.30;;;;;;5077420;28;20224;-89
2024/01/28 00:53:49;;;;;;;38.63;24.43;;;1.60;92.30;;;;;;5077204;28;20185;-89
2024/01/28 00:56:17;;;;;;;39.03;24.07;;;1.60;92.40;;;;;;5077028;28;20198;-88
2024/01/28 00:58:46;;;;;;;31.17;24.13;;;1.60;92.40;;;;;;5095168;28;20197;-89
2024/01/28 01:01:12;;;;;;;40.47;24.53;;;1.60;92.40;;;;;;5077384;28;20175;-89
2024/01/28 01:03:38;;;;;;;38.00;25.87;;;1.70;92.40;;;;;;5076937;28;20277;-89
2024/01/28 01:06:06;;;;;;;29.77;23.00;;;1.60;92.20;;;;;;5077284;28;20195;-89
2024/01/28 01:08:32;;;;;;;31.30;23.03;;;1.70;92.30;;;;;;5076823;28;20575;-89
2024/01/28 01:10:58;;;;;;;33.97;24.00;;;1.70;92.20;;;;;;5077001;28;20350;-88
2024/01/28 01:13:24;;;;;;;35.63;24.73;;;1.80;92.20;;;;;;5076687;28;20177;-89
2024/01/28 01:15:50;;;;;;;39.67;27.00;;;1.70;92.00;;;;;;5094719;28;20249;-89
2024/01/28 01:18:15;;;;;;;37.47;28.43;;;1.60;91.90;;;;;;5076586;28;20178;-89
2024/01/28 01:20:41;;;;;;;39.23;27.43;;;1.60;91.70;;;;;;5094997;28;20176;-88
2024/01/28 01:23:06;;;;;;;33.87;28.07;;;1.50;91.60;;;;;;5094624;28;20598;-89
2024/01/28 01:25:32;;;;;;;34.43;27.63;;;1.50;91.50;;;;;;5076484;28;20179;-89
2024/01/28 01:27:58;;;;;;;41.47;28.57;;;1.50;91.50;;;;;;5076210;28;20214;-89
2024/01/28 01:30:24;;;;;;;45.00;29.50;;;1.40;91.50;;;;;;5076306;28;20646;-89
2024/01/28 01:32:49;;;;;;;45.77;29.57;;;1.40;91.60;;;;;;5076336;28;20170;-89
2024/01/28 01:35:15;;;;;;;45.07;29.50;;;1.40;91.60;;;;;;5076551;28;20258;-89
2024/01/28 01:37:41;;;;;;;38.83;30.47;;;1.40;91.70;;;;;;5076143;28;20194;-89
2024/01/28 01:40:07;;;;;;;38.93;27.90;;;1.50;91.80;;;;;;5076442;28;20213;-89
2024/01/28 01:42:33;;;;;;;45.37;29.87;;;1.50;91.80;;;;;;5094492;28;20224;-88
2024/01/28 01:44:58;;;;;;;49.27;42.33;;;1.50;91.70;;;;;;5076110;28;20183;-89
2024/01/28 01:47:26;;;;;;;51.10;44.90;;;1.50;91.70;;;;;;5076186;28;20209;-89
2024/01/28 01:49:52;;;;;;;50.17;44.87;;;1.50;91.70;;;;;;5076024;28;20182;-89
2024/01/28 01:52:19;;;;;;;48.57;43.53;;;1.50;91.70;;;;;;5076368;28;20183;-89
2024/01/28 01:54:47;;;;;;;56.90;45.33;;;1.40;91.70;;;;;;5075858;28;20174;-89
2024/01/28 01:57:13;;;;;;;56.67;44.17;;;1.40;91.70;;;;;;5075922;28;20233;-89
2024/01/28 01:59:39;;;;;;;51.50;42.67;;;1.40;91.70;;;;;;5076132;28;20186;-89
2024/01/28 02:02:08;;;;;;;52.50;43.80;;;1.40;91.80;;;;;;5075807;28;20186;-89
2024/01/28 02:04:34;;;;;;;50.23;42.23;;;1.50;91.80;;;;;;5075678;28;20194;-89
2024/01/28 02:07:00;;;;;;;49.07;43.33;;;1.50;91.80;;;;;;5075666;28;20628;-89
2024/01/28 02:09:25;;;;;;;48.57;43.53;;;1.40;91.70;;;;;;5075683;28;20179;-89
2024/01/28 02:11:51;;;;;;;47.40;42.77;;;1.40;91.80;;;;;;5075601;28;20196;-88
2024/01/28 02:14:24;;;;;;;45.47;40.87;;;1.40;91.80;;;;;;5075710;28;20274;-89
2024/01/28 02:16:50;;;;;;;46.90;42.20;;;1.50;91.90;;;;;;5075858;28;20576;-88
2024/01/28 02:19:17;;;;;;;46.70;41.60;;;1.50;91.80;;;;;;5075754;28;20183;-88
2024/01/28 02:21:42;;;;;;;46.17;40.07;;;1.50;91.90;;;;;;5093644;28;20182;-88
2024/01/28 02:24:08;;;;;;;44.23;39.70;;;1.50;91.80;;;;;;5075368;28;20183;-89
2024/01/28 02:26:33;;;;;;;46.77;42.27;;;1.50;91.80;;;;;;5075227;28;20206;-88
2024/01/28 02:28:59;;;;;;;44.67;40.00;;;1.50;91.90;;;;;;5075473;28;20175;-88
2024/01/28 02:31:24;;;;;;;45.50;40.60;;;1.50;91.90;;;;;;5093474;28;20180;-89
2024/01/28 02:33:50;;;;;;;45.83;41.07;;;1.60;91.80;;;;;;5075499;28;20228;-88
2024/01/28 02:36:15;;;;;;;46.00;40.90;;;1.70;91.80;;;;;;5075699;28;20286;-89
2024/01/28 02:38:41;;;;;;;47.53;41.43;;;1.60;91.60;;;;;;5076171;28;20265;-89
2024/01/28 02:41:06;;;;;;;45.30;40.53;;;1.60;91.60;;;;;;5093680;28;20203;-89
2024/01/28 02:43:32;;;;;;;46.10;41.17;;;1.40;91.40;;;;;;5075230;28;20208;-88
2024/01/28 02:45:57;;;;;;;34.93;26.37;;;1.40;91.50;;;;;;5093494;28;20183;-89
2024/01/28 02:48:23;;;;;;;38.60;26.90;;;1.30;91.40;;;;;;5075301;28;20210;-89
2024/01/28 02:50:49;;;;;;;38.37;28.27;;;1.30;91.40;;;;;;5075104;28;20180;-89
2024/01/28 02:53:14;;;;;;;47.17;40.03;;;1.30;91.50;;;;;;5075261;28;20189;-89
2024/01/28 02:55:40;;;;;;;46.27;41.60;;;1.30;91.50;;;;;;5075061;28;20259;-89
2024/01/28 02:58:06;;;;;;;44.93;40.90;;;1.30;91.50;;;;;;5075184;28;20248;-89
2024/01/28 03:00:31;;;;;;;49.23;42.63;;;1.20;91.60;;;;;;5093385;28;20639;-89
2024/01/28 03:02:57;;;;;;;46.70;42.00;;;1.20;91.60;;;;;;5094376;28;20182;-89
2024/01/28 03:05:22;;;;;;;47.30;40.37;;;1.20;91.60;;;;;;5097167;28;20175;-88
2024/01/28 03:07:48;;;;;;;47.00;42.03;;;1.20;91.60;;;;;;5079099;28;20242;-89
2024/01/28 03:10:13;;;;;;;46.63;42.17;;;1.20;91.60;;;;;;5079144;28;20217;-89
2024/01/28 03:12:39;;;;;;;47.10;42.57;;;1.20;91.60;;;;;;5079312;28;20178;-88
2024/01/28 03:15:05;;;;;;;46.50;41.50;;;1.20;91.60;;;;;;5079136;28;20204;-88
2024/01/28 03:17:31;;;;;;;47.73;42.57;;;1.20;91.60;;;;;;5080373;28;20264;-88
2024/01/28 03:19:57;;;;;;;46.10;41.43;;;1.20;91.50;;;;;;5079165;28;20642;-89
2024/01/28 03:22:22;;;;;;;47.67;42.97;;;1.20;91.50;;;;;;5078908;28;20206;-89
2024/01/28 03:24:48;;;;;;;46.10;40.53;;;1.10;91.50;;;;;;5079449;28;20527;-88
2024/01/28 03:27:14;;;;;;;34.23;27.17;;;1.20;91.60;;;;;;5078776;28;20213;-88
2024/01/28 03:29:40;;;;;;;34.53;27.30;;;1.20;91.60;;;;;;5079000;28;20183;-88
2024/01/28 03:32:05;;;;;;;34.57;27.10;;;1.20;91.40;;;;;;5096739;28;20628;-89
2024/01/28 03:34:31;;;;;;;37.30;27.60;;;1.20;91.40;;;;;;5078670;28;20603;-88
2024/01/28 03:36:56;;;;;;;39.57;27.97;;;1.20;91.30;;;;;;5079092;28;20196;-88
2024/01/28 03:39:22;;;;;;;35.13;26.50;;;1.20;91.30;;;;;;5078557;28;20534;-88
2024/01/28 03:41:47;;;;;;;34.07;28.60;;;1.20;91.30;;;;;;5078458;28;20199;-88
2024/01/28 03:44:19;;;;;;;35.50;27.03;;;1.20;91.20;;;;;;5078423;28;20179;-88
2024/01/28 03:46:45;;;;;;;38.33;27.50;;;1.10;91.20;;;;;;5079160;28;20557;-88
2024/01/28 03:49:10;;;;;;;40.93;29.77;;;1.10;91.20;;;;;;5078437;28;20180;-88
2024/01/28 03:51:36;;;;;;;38.73;28.40;;;1.10;91.20;;;;;;5078358;28;20185;-88
2024/01/28 03:54:01;;;;;;;35.87;28.33;;;1.10;91.30;;;;;;5078222;28;20559;-88
2024/01/28 03:56:27;;;;;;;37.00;28.27;;;1.10;91.30;;;;;;5078202;28;20681;-88
2024/01/28 03:58:52;;;;;;;33.40;27.73;;;1.10;91.40;;;;;;5096278;28;20175;-88
2024/01/28 04:01:28;;;;;;;36.07;28.17;;;1.10;91.40;;;;;;5078150;28;20321;-88
2024/01/28 04:03:57;;;;;;;35.93;28.73;;;1.10;91.30;;;;;;5096278;28;20194;-88
2024/01/28 04:06:23;;;;;;;39.30;28.80;;;1.10;91.30;;;;;;5078010;28;20199;-88
2024/01/28 04:08:49;;;;;;;32.80;28.20;;;1.00;91.20;;;;;;5078365;28;20207;-88
2024/01/28 04:11:15;;;;;;;32.67;29.10;;;1.00;91.20;;;;;;5096097;28;20167;-88
2024/01/28 04:13:41;;;;;;;40.13;29.43;;;1.00;91.20;;;;;;5077770;28;20179;-88
2024/01/28 04:16:06;;;;;;;39.90;28.77;;;0.90;91.20;;;;;;5077934;28;20197;-88
2024/01/28 04:18:32;;;;;;;39.50;29.50;;;0.90;91.20;;;;;;5095904;28;20208;-88
2024/01/28 04:20:57;;;;;;;40.37;29.77;;;0.90;91.20;;;;;;5077898;28;20194;-88
2024/01/28 04:23:23;;;;;;;36.33;28.93;;;0.80;91.20;;;;;;5095776;28;20171;-89
2024/01/28 04:25:48;;;;;;;36.40;29.00;;;0.80;91.30;;;;;;5095795;28;20178;-89
2024/01/28 04:28:14;;;;;;;38.23;32.13;;;0.80;91.30;;;;;;5077613;28;20203;-88
2024/01/28 04:30:40;;;;;;;50.83;45.90;;;0.80;91.40;;;;;;5095730;28;20541;-88
2024/01/28 04:33:06;;;;;;;49.47;44.43;;;0.80;91.40;;;;;;5077581;28;20182;-88
2024/01/28 04:35:32;;;;;;;49.03;44.50;;;0.90;91.50;;;;;;5077507;28;20174;-88
2024/01/28 04:37:57;;;;;;;50.10;44.83;;;1.00;91.40;;;;;;5077427;28;20239;-88
2024/01/28 04:40:23;;;;;;;50.07;44.80;;;1.00;91.50;;;;;;5095578;28;20171;-88
2024/01/28 04:42:48;;;;;;;46.63;41.67;;;0.90;91.40;;;;;;5095505;28;20550;-88
2024/01/28 04:45:14;;;;;;;57.37;43.10;;;0.80;91.40;;;;;;5077370;28;20253;-88
2024/01/28 04:47:41;;;;;;;47.67;42.63;;;0.80;91.40;;;;;;5077170;28;20238;-89
2024/01/28 04:50:07;;;;;;;52.33;43.13;;;0.80;91.50;;;;;;5077251;28;20533;-88
2024/01/28 04:52:32;;;;;;;48.87;44.17;;;0.80;91.40;;;;;;5077186;28;20198;-88
2024/01/28 04:54:58;;;;;;;55.50;43.20;;;0.80;91.40;;;;;;5095262;28;20175;-88
2024/01/28 04:57:23;;;;;;;49.63;45.13;;;0.80;91.40;;;;;;5077133;28;20191;-88
2024/01/28 04:59:49;;;;;;;49.37;44.20;;;0.80;91.30;;;;;;5095242;28;20223;-88
2024/01/28 05:02:15;;;;;;;41.10;31.13;;;0.80;91.30;;;;;;5077360;28;20175;-89
2024/01/28 05:04:40;;;;;;;38.33;29.77;;;0.70;91.30;;;;;;5076900;28;20617;-88
2024/01/28 05:07:06;;;;;;;45.83;32.00;;;0.70;91.20;;;;;;5076725;28;20194;-88
2024/01/28 05:09:31;;;;;;;57.53;47.27;;;0.70;91.40;;;;;;5076827;28;20205;-89
2024/01/28 05:11:57;;;;;;;55.30;41.67;;;0.70;91.50;;;;;;5076860;28;20201;-88
2024/01/28 05:14:22;;;;;;;53.23;43.67;;;0.70;91.60;;;;;;5076779;28;20182;-88
2024/01/28 05:16:49;;;;;;;48.30;42.83;;;0.70;91.60;;;;;;5094687;28;20193;-88
2024/01/28 05:19:14;;;;;;;50.53;43.97;;;0.70;91.60;;;;;;5076692;28;20227;-88
2024/01/28 05:21:40;;;;;;;51.47;42.63;;;0.70;91.70;;;;;;5094690;28;20589;-89
2024/01/28 05:24:06;;;;;;;51.60;41.77;;;0.70;91.70;;;;;;5094685;28;20167;-88
2024/01/28 05:26:32;;;;;;;59.00;42.10;;;0.70;91.90;;;;;;5075850;28;20198;-88
2024/01/28 05:29:04;;;;;;;50.17;42.93;;;0.80;91.90;;;;;;5076467;28;20224;-88
2024/01/28 05:31:29;;;;;;;52.07;41.23;;;0.80;91.90;;;;;;5094606;28;20155;-88
2024/01/28 05:33:55;;;;;;;46.27;38.80;;;0.70;92.00;;;;;;5076498;28;20200;-88
2024/01/28 05:36:21;;;;;;;43.80;38.87;;;0.70;92.10;;;;;;5076290;28;20198;-88
2024/01/28 05:38:47;;;;;;;50.97;38.50;;;0.70;92.10;;;;;;5076461;28;20167;-88
2024/01/28 05:41:12;;;;;;;52.93;41.27;;;0.70;92.10;;;;;;5076465;28;20263;-88
2024/01/28 05:43:38;;;;;;;54.97;38.90;;;0.60;92.10;;;;;;5076317;28;20170;-88
2024/01/28 05:46:04;;;;;;;48.47;39.23;;;0.60;92.10;;;;;;5076154;28;20199;-88
2024/01/28 05:48:30;;;;;;;45.30;37.17;;;0.60;92.10;;;;;;5076528;28;20237;-88
2024/01/28 05:50:55;;;;;;;48.17;42.33;;;0.60;92.10;;;;;;5076027;28;20177;-88
2024/01/28 05:53:23;;;;;;;50.20;44.80;;;0.50;92.00;;;;;;5075986;28;20257;-88
2024/01/28 05:55:49;;;;;;;48.73;43.70;;;0.50;92.00;;;;;;5093979;28;20177;-88
2024/01/28 05:58:14;;;;;;;47.73;42.63;;;0.50;92.00;;;;;;5075930;28;20178;-88
2024/01/28 06:00:40;;;;;;;46.40;41.70;;;0.60;92.00;;;;;;5075911;28;20210;-88
2024/01/28 06:03:05;;;;;;;42.73;29.33;;;0.60;92.10;;;;;;5075988;28;20713;-88
2024/01/28 06:05:31;;;;;;;40.83;26.37;;;0.50;92.00;;;;;;5075861;28;20174;-89
2024/01/28 06:07:56;;;;;;;45.00;29.13;;;0.50;92.00;;;;;;5076065;28;20200;-88
2024/01/28 06:10:22;;;;;;;51.70;40.10;;;0.50;92.00;;;;;;5093845;28;20181;-88
2024/01/28 06:12:47;;;;;;;53.60;41.47;;;0.60;92.00;;;;;;5075709;28;20638;-88
2024/01/28 06:15:13;;;;;;;52.00;41.10;;;0.60;92.00;;;;;;5075820;28;20220;-88
2024/01/28 06:17:39;;;;;;;49.93;40.67;;;0.60;92.10;;;;;;5076112;28;20244;-88
2024/01/28 06:20:06;;;;;;;50.30;43.93;;;0.60;92.10;;;;;;5075708;28;20178;-88
2024/01/28 06:22:32;;;;;;;48.33;43.30;;;0.70;92.10;;;;;;5075764;28;20174;-88
2024/01/28 06:25:01;;;;;;;53.37;40.97;;;0.70;92.00;;;;;;5093897;28;20186;-88
2024/01/28 06:27:27;;;;;;;48.53;39.43;;;0.70;91.90;;;;;;5093609;28;20190;-88
2024/01/28 06:29:53;;;;;;;49.30;36.70;;;0.70;91.90;;;;;;5075608;28;20171;-88
2024/01/28 06:32:21;;;;;;;48.77;38.77;;;0.70;91.90;;;;;;5075354;28;20170;-88
2024/01/28 06:34:46;;;;;;;51.47;41.00;;;0.70;91.80;;;;;;5075437;28;20174;-88
2024/01/28 06:37:12;;;;;;;55.67;40.13;;;0.70;91.80;;;;;;5074861;28;20569;-88
2024/01/28 06:39:38;;;;;;;50.27;41.57;;;0.70;91.80;;;;;;5076172;28;20181;-88
2024/01/28 06:42:04;;;;;;;47.67;40.90;;;0.70;91.80;;;;;;5075523;28;20223;-88
2024/01/28 06:44:29;;;;;;;44.10;33.13;;;0.80;91.80;;;;;;5075304;28;20672;-88
2024/01/28 06:46:55;;;;;;;40.27;27.20;;;0.70;91.70;;;;;;5075209;28;20205;-88
2024/01/28 06:49:20;;;;;;;38.53;26.97;;;0.60;91.60;;;;;;5075298;28;20595;-88
2024/01/28 06:51:46;;;;;;;42.73;38.30;;;0.50;91.60;;;;;;5075267;28;20167;-89
2024/01/28 06:54:11;;;;;;;43.17;38.73;;;0.50;91.70;;;;;;5093520;28;20212;-89
2024/01/28 06:56:37;;;;;;;44.53;39.00;;;0.50;91.70;;;;;;5075166;28;20239;-89
2024/01/28 06:59:02;;;;;;;43.40;37.67;;;0.60;91.70;;;;;;5075228;28;20182;-88
2024/01/28 07:01:28;;;;;;;45.50;40.67;;;0.50;91.70;;;;;;5074699;28;20413;-90
2024/01/28 07:03:54;;;;;;;48.03;42.23;;;0.50;91.70;;;;;;5074981;28;20186;-89
2024/01/28 07:06:20;;;;;;;49.20;40.43;;;0.60;91.70;;;;;;5093135;28;20189;-89
2024/01/28 07:08:45;;;;;;;46.13;41.80;;;0.50;91.60;;;;;;5074937;28;20201;-89
2024/01/28 07:11:11;;;;;;;36.57;26.73;;;0.50;91.60;;;;;;5093127;28;20171;-89
2024/01/28 07:13:36;;;;;;;29.87;26.53;;;0.50;91.70;;;;;;5075154;28;20566;-89
2024/01/28 07:16:03;;;;;;;36.43;26.70;;;0.50;91.70;;;;;;5075235;28;20177;-88
2024/01/28 07:18:29;;;;;;;37.07;26.47;;;0.50;91.70;;;;;;5075014;28;20243;-89
2024/01/28 07:20:54;;;;;;;38.77;25.50;;;0.50;91.70;;;;;;5074902;28;20643;-89
2024/01/28 07:23:20;;;;;;;28.37;24.03;;;0.50;91.70;;;;;;5075383;28;20175;-89
2024/01/28 07:25:46;;;;;;;30.50;25.10;;;0.50;91.80;;;;;;5074752;28;20186;-89
2024/01/28 07:28:12;;;;;;;34.80;25.20;;;0.60;91.80;;;;;;5074864;28;20721;-89
2024/01/28 07:30:37;;;;;;;38.73;27.37;;;0.60;91.70;;;;;;5074935;28;20220;-89
2024/01/28 07:33:07;;;;;;;37.03;27.10;;;0.60;91.70;;;;;;5093080;28;20514;-89
2024/01/28 07:35:33;;;;;;;42.37;27.20;;;0.60;91.80;;;;;;5074813;28;20250;-89
2024/01/28 07:37:59;;;;;;;29.07;23.73;;;0.70;91.80;;;;;;5075047;28;20304;-89
2024/01/28 07:40:24;;;;;;;38.00;25.00;;;0.60;91.60;;;;;;5074898;28;20553;-89
2024/01/28 07:42:50;;;;;;;34.03;25.00;;;0.60;91.70;;;;;;5075218;28;20181;-89
2024/01/28 07:45:15;;;;;;;37.00;23.87;;;0.70;91.80;;;;;;5075082;28;20563;-89
2024/01/28 07:47:41;;;;;;;30.57;24.23;;;0.70;91.80;;;;;;5074613;28;20251;-89
2024/01/28 07:50:07;;;;;;;31.80;24.90;;;0.70;91.80;;;;;;5077380;28;20267;-88
2024/01/28 07:52:32;;;;;;;30.83;24.67;;;0.70;91.80;;;;;;5096521;28;20173;-89
2024/01/28 07:54:58;;;;;;;31.37;24.30;;;0.70;91.80;;;;;;5078249;28;20580;-89
2024/01/28 07:57:23;;;;;;;38.07;25.00;;;0.80;91.80;;;;;;5078110;28;20191;-89
2024/01/28 07:59:49;;;;;;;32.77;24.13;;;0.80;91.80;;;;;;5078241;28;20170;-89
2024/01/28 08:02:15;;;;;;;36.83;24.23;;;0.80;91.80;;;;;;5096327;28;20146;-88
2024/01/28 08:04:41;;;;;;;28.70;24.50;;;0.80;91.80;;;;;;5078076;28;20568;-89
2024/01/28 08:07:06;;;;;;;34.50;25.60;;;0.80;91.80;;;;;;5096031;28;20611;-89
2024/01/28 08:09:33;;;;;;;35.27;25.00;;;0.80;91.80;;;;;;5078126;28;20173;-88
2024/01/28 08:11:59;;;;;;;31.13;24.87;;;0.90;91.80;;;;;;5077986;28;20737;-89
2024/01/28 08:14:27;;;;;;;34.13;24.17;;;0.90;91.70;;;;;;5078024;28;20189;-89
2024/01/28 08:16:54;;;;;;;35.17;23.87;;;1.00;91.70;;;;;;5078166;28;20190;-88
2024/01/28 08:19:20;;;;;;;28.43;23.37;;;1.00;91.70;;;;;;5077897;28;20174;-89
2024/01/28 08:21:45;;;;;;;30.93;23.23;;;1.10;91.70;;;;;;5096156;28;20174;-89
2024/01/28 08:24:11;;;;;;;31.20;23.27;;;1.10;91.60;;;;;;5095876;28;20224;-89
2024/01/28 08:26:38;;;;;;;29.83;23.27;;;1.10;91.50;;;;;;5077859;28;20252;-89
2024/01/28 08:29:03;;;;;;;28.53;22.27;;;1.20;91.50;;;;;;5077838;28;20642;-89
2024/01/28 08:31:29;;;;;;;30.20;22.87;;;1.10;91.40;;;;;;5077880;28;20185;-89
2024/01/28 08:33:54;;;;;;;27.87;22.67;;;1.00;91.40;;;;;;5077561;28;20175;-89
2024/01/28 08:36:20;;;;;;;28.40;21.10;;;1.10;91.40;;;;;;5077387;28;20238;-88
2024/01/28 08:38:46;;;;;;;37.23;22.57;;;1.00;91.40;;;;;;5077665;28;20175;-88
2024/01/28 08:41:11;;;;;;;28.03;22.13;;;1.10;91.50;;;;;;5095932;28;20179;-88
2024/01/28 08:43:37;;;;;;;35.53;21.97;;;1.10;91.50;;;;;;5077434;28;20178;-88
2024/01/28 08:46:03;;;;;;;27.30;23.27;;;1.10;91.50;;;;;;5095378;28;20266;-88
2024/01/28 08:48:29;;;;;;;30.57;21.83;;;1.20;91.60;;;;;;5095365;28;20547;-88
2024/01/28 08:50:55;;;;;;;27.93;21.33;;;1.20;91.60;;;;;;5077316;28;20179;-88
2024/01/28 08:53:21;;;;;;;25.03;20.10;;;1.30;91.60;;;;;;5077407;28;20638;-88
2024/01/28 08:55:46;;;;;;;27.63;21.80;;;1.30;91.50;;;;;;5095493;28;20197;-88
2024/01/28 08:58:12;;;;;;;29.30;21.87;;;1.30;91.50;;;;;;5077375;28;20175;-88
2024/01/28 09:00:39;;;;;;;37.97;33.80;;;1.40;91.50;;;;;;5076416;28;20189;-88
2024/01/28 09:03:04;;;;;;;35.00;30.73;;;1.30;91.40;;;;;;5078064;28;20655;-88
2024/01/28 09:05:30;;;;;;;38.03;31.30;;;1.50;91.50;;;;;;5078099;28;20201;-89
2024/01/28 09:07:56;;;;;;;36.00;30.33;;;1.50;91.40;;;;;;5077041;28;20195;-88
2024/01/28 09:10:23;;;;;;;42.00;30.27;;;1.50;91.40;;;;;;5077160;28;20555;-88
2024/01/28 09:12:48;;;;;;;35.92;32.03;;;1.50;91.40;;;;;;5075861;28;20415;-88
2024/01/28 09:15:14;;;;;;;34.07;30.40;;;1.60;91.40;;;;;;5076801;28;20170;-88
2024/01/28 09:17:41;;;;;;;36.20;31.23;;;1.70;91.30;;;;;;5076767;28;20198;-88
2024/01/28 09:20:07;;;;;;;34.47;30.57;;;1.70;91.20;;;;;;5076895;28;20179;-88
2024/01/28 09:22:35;;;;;;;36.67;31.37;;;1.80;91.10;;;;;;5076716;28;20534;-89
2024/01/28 09:25:04;;;;;;;36.67;33.27;;;1.80;90.90;;;;;;5076569;28;20257;-89
2024/01/28 09:27:30;;;;;;;38.63;34.60;;;1.80;90.80;;;;;;5076385;28;20237;-89
2024/01/28 09:29:56;;;;;;;37.30;33.60;;;1.80;90.80;;;;;;5077082;28;20170;-89
2024/01/28 09:32:23;;;;;;;36.17;32.07;;;1.80;90.70;;;;;;5076551;28;20614;-88
2024/01/28 09:34:48;;;;;;;36.47;32.77;;;2.00;90.80;;;;;;5076418;28;20556;-89
2024/01/28 09:37:14;;;;;;;36.87;32.77;;;2.10;90.70;;;;;;5076556;28;20197;-89
2024/01/28 09:39:40;;;;;;;33.40;29.50;;;2.20;90.60;;;;;;5076524;28;20179;-89
2024/01/28 09:42:11;;;;;;;;;;;2.20;90.40;;;;;;5076808;28;19904;-88
2024/01/28 09:44:37;;;;;;;;;;;2.30;90.30;;;;;;5076611;28;19991;-89
2024/01/28 09:47:03;;;;;;;;;;;2.30;90.40;;;;;;5076480;28;20288;-89
2024/01/28 09:49:30;;;;;;;;;;;2.40;90.30;;;;;;5076765;28;19914;-89
2024/01/28 09:51:56;;;;;;;;;;;2.40;90.20;;;;;;5076849;28;19995;-89
2024/01/28 09:54:22;;;;;;;;;;;2.50;90.10;;;;;;5076723;28;19974;-89
2024/01/28 09:56:48;;;;;;;;;;;2.60;89.90;;;;;;5094726;28;19904;-89
2024/01/28 09:59:14;;;;;;;;;;;2.70;89.80;;;;;;5076387;28;19942;-89
2024/01/28 10:01:42;;;;;;;;;;;2.80;89.60;;;;;;5076348;28;19912;-88
2024/01/28 10:04:10;;;;;;;;;;;2.80;89.30;;;;;;5076317;28;19912;-89
2024/01/28 10:06:36;;;;;;;;;;;2.80;89.10;;;;;;5076191;28;19904;-88
2024/01/28 10:09:01;;;;;;;;;;;3.00;88.60;;;;;;5076186;28;19931;-89
2024/01/28 10:11:27;;;;;;;;;;;3.10;88.60;;;;;;5094157;28;20291;-89
2024/01/28 10:13:53;;;;;;;;;;;3.20;88.40;;;;;;5076786;28;19952;-89
2024/01/28 10:16:23;;;;;;;;;;;3.20;88.40;;;;;;5076397;28;19908;-89
2024/01/28 10:18:48;;;;;;;;;;;3.30;88.30;;;;;;5076264;28;19915;-88
2024/01/28 10:21:14;;;;;;;;;;;3.30;88.40;;;;;;5076051;28;19904;-89
2024/01/28 10:23:39;;;;;;;31.97;22.60;;;3.40;88.20;;;;;;5093983;28;19911;-89
2024/01/28 10:26:06;;;;;;;26.33;22.87;;;3.50;88.00;;;;;;5075490;28;20674;-89
2024/01/28 10:28:31;;;;;;;31.80;28.80;;;3.60;87.80;;;;;;5093863;28;20208;-89
2024/01/28 10:30:57;;;;;;;29.13;26.33;;;3.70;87.60;;;;;;5075458;28;20173;-89
2024/01/28 10:33:22;;;;;;;30.57;27.53;;;3.70;87.10;;;;;;5075800;28;20642;-89
2024/01/28 10:35:48;;;;;;;31.37;27.07;;;3.90;86.90;;;;;;5075343;28;20184;-90
2024/01/28 10:38:22;;;;;;;30.93;27.77;;;4.00;86.70;;;;;;5075598;28;20271;-89
2024/01/28 10:40:50;;;;;;;31.07;27.63;;;4.10;86.40;;;;;;5075306;28;20174;-89
2024/01/28 10:43:16;;;;;;;31.07;27.83;;;4.30;86.20;;;;;;5075249;28;20174;-89
2024/01/28 10:45:44;;;;;;;30.70;27.70;;;4.30;85.50;;;;;;5076462;28;20578;-89
2024/01/28 10:48:19;;;;;;;32.47;29.50;;;4.40;85.40;;;;;;5075106;28;20232;-89
2024/01/28 10:50:46;;;;;;;32.67;29.57;;;4.40;85.00;;;;;;5075237;28;20233;-89
2024/01/28 10:53:13;;;;;;;34.40;31.30;;;4.40;84.90;;;;;;5075181;28;20197;-89
2024/01/28 10:55:40;;;;;;;32.00;29.03;;;4.50;84.90;;;;;;5075759;28;20206;-90
2024/01/28 10:58:06;;;;;;;32.40;29.30;;;4.60;85.00;;;;;;5075907;28;20547;-89
2024/01/28 11:00:33;;;;;;;33.13;29.73;;;4.70;85.00;;;;;;5075191;28;20182;-89
2024/01/28 11:03:00;;;;;;;34.77;31.30;;;4.80;84.20;;;;;;5075068;28;20182;-89
2024/01/28 11:05:27;;;;;;;32.67;29.77;;;4.90;83.60;;;;;;5075889;28;20543;-89
2024/01/28 11:07:59;;;;;;;34.17;30.73;;;5.00;83.70;;;;;;5092845;28;20201;-89
2024/01/28 11:10:26;;;;;;;33.90;30.53;;;5.00;83.50;;;;;;5093083;28;20147;-89
2024/01/28 11:12:52;;;;;;;31.13;28.23;;;5.20;84.10;;;;;;5075514;28;20189;-89
2024/01/28 11:15:19;;;;;;;32.43;29.07;;;5.20;83.60;;;;;;5075431;28;20171;-88
2024/01/28 11:17:45;;;;;;;35.13;31.47;;;5.30;82.90;;;;;;5093029;28;20195;-89
2024/01/28 11:20:16;;;;;;;36.20;32.63;;;5.30;82.10;;;;;;5074952;28;20363;-89
2024/01/28 11:22:49;;;;;;;36.27;32.60;;;5.40;82.20;;;;;;5074989;28;20163;-89
2024/01/28 11:25:22;;;;;;;35.77;32.37;;;5.50;82.50;;;;;;5096189;28;20198;-89
2024/01/28 11:27:51;;;;;;;38.03;33.77;;;5.60;82.20;;;;;;5096818;28;20243;-89
2024/01/28 11:30:21;;;;;;;36.67;33.50;;;5.60;82.10;;;;;;5078840;28;20205;-88
2024/01/28 11:32:47;;;;;;;35.83;32.40;;;5.70;81.30;;;;;;5078728;28;20167;-89
2024/01/28 11:35:13;;;;;;;36.43;33.20;;;5.80;81.10;;;;;;5096764;28;20224;-89
2024/01/28 11:37:52;;;;;;;37.27;33.87;;;6.00;80.80;;;;;;5078593;28;20202;-89
2024/01/28 11:40:23;;;;;;;38.43;35.10;;;6.00;80.40;;;;;;5078623;28;20186;-89
2024/01/28 11:42:51;;;;;;;39.47;35.43;;;6.10;80.70;;;;;;5096707;28;20155;-89
2024/01/28 11:45:17;;;;;;;40.23;36.40;;;6.00;80.40;;;;;;5078762;28;20587;-89
2024/01/28 11:47:43;;;;;;;39.70;36.30;;;6.10;80.40;;;;;;5078317;28;20237;-89
2024/01/28 11:50:09;;;;;;;38.57;34.80;;;6.10;80.10;;;;;;5078411;28;20174;-89
2024/01/28 11:52:36;;;;;;;38.27;34.50;;;6.30;79.60;;;;;;5078338;28;20178;-89
2024/01/28 11:55:11;;;;;;;38.63;34.83;;;6.30;77.70;;;;;;5078521;28;20179;-89
2024/01/28 11:57:39;;;;;;;41.37;37.77;;;6.60;78.00;;;;;;5078600;28;20592;-89
2024/01/28 12:00:08;;;;;;;39.10;35.63;;;6.70;77.70;;;;;;5078089;28;20178;-89
2024/01/28 12:02:35;;;;;;;37.07;33.73;;;6.80;78.00;;;;;;5078589;28;20665;-89
2024/01/28 12:05:01;;;;;;;41.00;36.50;;;6.80;76.20;;;;;;5078087;28;20699;-89
2024/01/28 12:07:27;;;;;;;47.83;43.17;;;6.80;75.60;;;;;;5078140;28;20198;-88
2024/01/28 12:09:54;;;;;;;46.53;42.53;;;7.00;74.90;;;;;;5079030;28;20196;-89
2024/01/28 12:12:19;;;;;;;47.90;43.53;;;7.00;74.60;;;;;;5078046;28;20180;-88
2024/01/28 12:14:45;;;;;;;46.40;42.47;;;7.00;74.20;;;;;;5078001;28;20262;-89
2024/01/28 12:17:10;;;;;;;47.53;43.63;;;7.10;75.90;;;;;;5077878;28;20195;-89
2024/01/28 12:19:39;;;;;;;46.60;43.03;;;7.00;75.00;;;;;;5078003;28;20179;-89
2024/01/28 12:22:09;;;;;;;;;;;7.20;75.30;;;;;;5096274;28;20035;-90
2024/01/28 12:24:35;;;;;;;;;;;7.30;75.40;;;;;;5079081;28;19951;-89
2024/01/28 12:27:00;;;;;;;;;;;7.30;75.00;;;;;;5078024;28;20284;-90
2024/01/28 12:29:26;;;;;;;;;;;7.50;73.30;;;;;;5078116;28;20364;-91
2024/01/28 12:31:51;;;;;;;;;;;7.50;73.70;;;;;;5096132;28;19904;-90
2024/01/28 12:34:17;;;;;;;;;;;7.60;74.10;;;;;;5077940;28;19943;-90
2024/01/28 12:36:42;;;;;;;;;;;7.70;73.40;;;;;;5077693;28;19904;-90
2024/01/28 12:39:08;;;;;;;;;;;7.70;72.20;;;;;;5077976;28;19926;-91